QFA8 KDFW-YSSY
Flight info
| Callsign | QFA8 |
|---|---|
| Flight time | N/A |
| Altitude | 32000 |
| Route | N0503F320 NELYN6 HOARY DCT PNG DCT NAPDA/N0502F340 DCT MZT DCT 2202N10727W 2015N10935W 1808N11201W 1708N11313W 1341N11720W 1135N12000W 0959N12159W 0708N12538W/N0500F360 0607N12656W 0330N13010W 0254N13054W 0037S13457W 0233S13709W 0524S14029W 0750S14343W 1035S14835W 1325S15357W/N0489F380 1517S15700W 1544S15745W 1743S16049W 1926S16327W 2203S16706W 2435S17024W 2651S17328W 2904S17649W/N0482F400 3133S17829E 3227S17618E 3327S17318E 3348S17200E 3437S16706E 3445S16300E 3446S16218E DCT AKALU N774 MARLN |
| Aircraft | B789/H-SDE1E2E3FGHIJ2J3J4J5M1RWXY/LB1D1 |
Departure
| Time | 2026-05-05 07:09 |
|---|---|
| Airport | Dallas Fort Worth International Airport (KDFW) |
Arrival
| Time | N/A |
|---|---|
| Airport | Sydney Kingsford Smith International Airport (YSSY) |
| Time | Latitude | Longitude | Altitude | Speed | Heading |
|---|---|---|---|---|---|
| 2026-05-05 05:58 | 32.89502 | -97.04410 | 603 ft | 0 kts | 17° |
| 2026-05-05 06:53 | 32.89484 | -97.04416 | 603 ft | 4 kts | 5° |
| 2026-05-05 06:53 | 32.89458 | -97.04414 | 603 ft | 4 kts | 337° |
| 2026-05-05 06:54 | 32.89437 | -97.04396 | 603 ft | 4 kts | 303° |
| 2026-05-05 06:54 | 32.89429 | -97.04369 | 603 ft | 2 kts | 270° |
| 2026-05-05 06:54 | 32.89429 | -97.04367 | 603 ft | 0 kts | 270° |
| 2026-05-05 06:59 | 32.89429 | -97.04372 | 603 ft | 3 kts | 270° |
| 2026-05-05 06:59 | 32.89428 | -97.04426 | 598 ft | 10 kts | 270° |
| 2026-05-05 06:59 | 32.89428 | -97.04536 | 603 ft | 17 kts | 270° |
| 2026-05-05 07:00 | 32.89422 | -97.04682 | 603 ft | 16 kts | 252° |
| 2026-05-05 07:00 | 32.89445 | -97.04753 | 603 ft | 6 kts | 323° |
| 2026-05-05 07:00 | 32.89513 | -97.04770 | 603 ft | 14 kts | 360° |
| 2026-05-05 07:00 | 32.89624 | -97.04768 | 613 ft | 18 kts | 1° |
| 2026-05-05 07:01 | 32.89766 | -97.04766 | 604 ft | 19 kts | 0° |
| 2026-05-05 07:01 | 32.89894 | -97.04767 | 617 ft | 18 kts | 359° |
| 2026-05-05 07:01 | 32.90013 | -97.04769 | 613 ft | 16 kts | 359° |
| 2026-05-05 07:01 | 32.90121 | -97.04771 | 621 ft | 15 kts | 4° |
| 2026-05-05 07:02 | 32.90217 | -97.04767 | 613 ft | 12 kts | 1° |
| 2026-05-05 07:02 | 32.90299 | -97.04766 | 612 ft | 11 kts | 0° |
| 2026-05-05 07:02 | 32.90378 | -97.04766 | 613 ft | 12 kts | 359° |
| 2026-05-05 07:02 | 32.90485 | -97.04770 | 613 ft | 17 kts | 4° |
| 2026-05-05 07:03 | 32.90618 | -97.04762 | 613 ft | 22 kts | 2° |
| 2026-05-05 07:03 | 32.90791 | -97.04754 | 613 ft | 28 kts | 1° |
| 2026-05-05 07:03 | 32.91006 | -97.04755 | 613 ft | 27 kts | 350° |
| 2026-05-05 07:03 | 32.91120 | -97.04795 | 615 ft | 8 kts | 2° |
| 2026-05-05 07:04 | 32.91173 | -97.04791 | 614 ft | 7 kts | 3° |
| 2026-05-05 07:04 | 32.91219 | -97.04789 | 614 ft | 6 kts | 1° |
| 2026-05-05 07:04 | 32.91255 | -97.04789 | 615 ft | 5 kts | 0° |
| 2026-05-05 07:04 | 32.91284 | -97.04789 | 616 ft | 5 kts | 360° |
| 2026-05-05 07:05 | 32.91350 | -97.04789 | 615 ft | 13 kts | 359° |
| 2026-05-05 07:05 | 32.91467 | -97.04794 | 615 ft | 19 kts | 358° |
| 2026-05-05 07:05 | 32.91559 | -97.04818 | 621 ft | 5 kts | 296° |
| 2026-05-05 07:05 | 32.91564 | -97.04847 | 623 ft | 3 kts | 274° |
| 2026-05-05 07:06 | 32.91566 | -97.04872 | 620 ft | 3 kts | 271° |
| 2026-05-05 07:06 | 32.91566 | -97.04899 | 617 ft | 4 kts | 271° |
| 2026-05-05 07:06 | 32.91568 | -97.04944 | 625 ft | 7 kts | 272° |
| 2026-05-05 07:06 | 32.91569 | -97.05021 | 626 ft | 12 kts | 270° |
| 2026-05-05 07:07 | 32.91569 | -97.05149 | 626 ft | 18 kts | 270° |
| 2026-05-05 07:07 | 32.91568 | -97.05287 | 628 ft | 15 kts | 270° |
| 2026-05-05 07:07 | 32.91567 | -97.05392 | 630 ft | 13 kts | 269° |
| 2026-05-05 07:07 | 32.91520 | -97.05464 | 635 ft | 12 kts | 194° |
| 2026-05-05 07:08 | 32.91453 | -97.05467 | 631 ft | 11 kts | 179° |
| 2026-05-05 07:08 | 32.91199 | -97.05464 | 632 ft | 67 kts | 179° |
| 2026-05-05 07:08 | 32.90526 | -97.05477 | 621 ft | 125 kts | 179° |
| 2026-05-05 07:08 | 32.89475 | -97.05480 | 626 ft | 174 kts | 181° |
| 2026-05-05 07:09 | 32.88231 | -97.05512 | 1173 ft | 176 kts | 184° |
| 2026-05-05 07:09 | 32.87030 | -97.05575 | 2029 ft | 167 kts | 186° |
| 2026-05-05 07:09 | 32.85930 | -97.05665 | 3057 ft | 156 kts | 193° |
| 2026-05-05 07:09 | 32.84808 | -97.05828 | 3548 ft | 173 kts | 192° |
| 2026-05-05 07:10 | 32.83538 | -97.05831 | 3976 ft | 195 kts | 180° |
| 2026-05-05 07:10 | 32.82130 | -97.05484 | 4207 ft | 216 kts | 180° |
| 2026-05-05 07:10 | 32.80585 | -97.05361 | 4458 ft | 234 kts | 186° |
| 2026-05-05 07:10 | 32.78895 | -97.05393 | 4933 ft | 247 kts | 187° |
| 2026-05-05 07:11 | 32.77158 | -97.05420 | 5628 ft | 253 kts | 186° |
| 2026-05-05 07:11 | 32.75362 | -97.05423 | 6230 ft | 262 kts | 186° |
| 2026-05-05 07:11 | 32.73519 | -97.05422 | 6841 ft | 267 kts | 186° |
| 2026-05-05 07:11 | 32.71641 | -97.05425 | 7493 ft | 270 kts | 186° |
| 2026-05-05 07:12 | 32.69789 | -97.05721 | 7924 ft | 273 kts | 204° |
| 2026-05-05 07:12 | 32.67954 | -97.06379 | 8443 ft | 280 kts | 199° |
| 2026-05-05 07:12 | 32.66017 | -97.06920 | 9090 ft | 285 kts | 199° |
| 2026-05-05 07:12 | 32.64102 | -97.07498 | 9741 ft | 288 kts | 200° |
| 2026-05-05 07:13 | 32.62150 | -97.08122 | 10249 ft | 296 kts | 201° |
| 2026-05-05 07:13 | 32.60126 | -97.08772 | 10292 ft | 322 kts | 200° |
| 2026-05-05 07:13 | 32.57874 | -97.09473 | 10389 ft | 344 kts | 199° |
| 2026-05-05 07:13 | 32.55553 | -97.10180 | 11065 ft | 344 kts | 199° |
| 2026-05-05 07:14 | 32.53221 | -97.10904 | 11689 ft | 348 kts | 199° |
| 2026-05-05 07:14 | 32.50870 | -97.11642 | 12326 ft | 351 kts | 199° |
| 2026-05-05 07:14 | 32.48501 | -97.12382 | 12975 ft | 354 kts | 199° |
| 2026-05-05 07:14 | 32.46137 | -97.13115 | 13603 ft | 357 kts | 199° |
| 2026-05-05 07:15 | 32.43723 | -97.13864 | 14171 ft | 360 kts | 199° |
| 2026-05-05 07:15 | 32.41288 | -97.14622 | 14750 ft | 363 kts | 200° |
| 2026-05-05 07:15 | 32.38835 | -97.15385 | 15320 ft | 366 kts | 200° |
| 2026-05-05 07:15 | 32.36363 | -97.16153 | 15844 ft | 369 kts | 200° |
| 2026-05-05 07:16 | 32.33864 | -97.16928 | 16344 ft | 373 kts | 201° |
| 2026-05-05 07:16 | 32.31342 | -97.17710 | 16862 ft | 376 kts | 201° |
| 2026-05-05 07:16 | 32.28794 | -97.18489 | 17392 ft | 380 kts | 199° |
| 2026-05-05 07:16 | 32.26124 | -97.18876 | 17891 ft | 390 kts | 193° |
| 2026-05-05 07:17 | 32.23418 | -97.19245 | 18349 ft | 392 kts | 195° |
| 2026-05-05 07:17 | 32.20704 | -97.19651 | 18810 ft | 394 kts | 194° |
| 2026-05-05 07:17 | 32.17965 | -97.20021 | 19277 ft | 397 kts | 193° |
| 2026-05-05 07:17 | 32.15242 | -97.20367 | 19710 ft | 400 kts | 193° |
| 2026-05-05 07:18 | 32.12467 | -97.20734 | 20163 ft | 402 kts | 194° |
| 2026-05-05 07:18 | 32.09677 | -97.21116 | 20591 ft | 404 kts | 194° |
| 2026-05-05 07:18 | 32.06857 | -97.21496 | 21031 ft | 407 kts | 193° |
| 2026-05-05 07:18 | 32.04033 | -97.21869 | 21572 ft | 409 kts | 193° |
| 2026-05-05 07:19 | 32.01185 | -97.22249 | 21952 ft | 413 kts | 193° |
| 2026-05-05 07:19 | 31.98356 | -97.22629 | 22338 ft | 415 kts | 193° |
| 2026-05-05 07:19 | 31.95478 | -97.23013 | 22725 ft | 417 kts | 193° |
| 2026-05-05 07:19 | 31.92580 | -97.23398 | 23104 ft | 420 kts | 193° |
| 2026-05-05 07:20 | 31.89667 | -97.23786 | 23463 ft | 422 kts | 193° |
| 2026-05-05 07:20 | 31.86730 | -97.24178 | 23783 ft | 424 kts | 194° |
| 2026-05-05 07:20 | 31.83792 | -97.24569 | 24095 ft | 426 kts | 194° |
| 2026-05-05 07:20 | 31.80838 | -97.24962 | 24400 ft | 428 kts | 194° |
| 2026-05-05 07:21 | 31.77906 | -97.25352 | 24693 ft | 430 kts | 194° |
| 2026-05-05 07:21 | 31.74923 | -97.25748 | 24992 ft | 432 kts | 194° |
| 2026-05-05 07:21 | 31.71930 | -97.26145 | 25294 ft | 434 kts | 195° |
| 2026-05-05 07:21 | 31.68924 | -97.26544 | 25583 ft | 436 kts | 195° |
| 2026-05-05 07:22 | 31.65965 | -97.27182 | 25855 ft | 427 kts | 205° |
| 2026-05-05 07:22 | 31.63185 | -97.28344 | 26130 ft | 421 kts | 211° |
| 2026-05-05 07:22 | 31.60448 | -97.29635 | 26411 ft | 424 kts | 210° |
| 2026-05-05 07:22 | 31.57701 | -97.30919 | 26702 ft | 425 kts | 211° |
| 2026-05-05 07:23 | 31.54950 | -97.32217 | 27010 ft | 427 kts | 211° |
| 2026-05-05 07:23 | 31.52190 | -97.33523 | 27284 ft | 429 kts | 211° |
| 2026-05-05 07:23 | 31.49417 | -97.34829 | 27562 ft | 430 kts | 211° |
| 2026-05-05 07:23 | 31.46630 | -97.36137 | 27833 ft | 432 kts | 211° |
| 2026-05-05 07:24 | 31.43835 | -97.37451 | 28108 ft | 434 kts | 211° |
| 2026-05-05 07:24 | 31.41023 | -97.38773 | 28370 ft | 436 kts | 211° |
| 2026-05-05 07:24 | 31.38196 | -97.40102 | 28619 ft | 438 kts | 211° |
| 2026-05-05 07:24 | 31.36325 | -97.40979 | 28798 ft | 439 kts | 211° |
| 2026-05-05 07:25 | 31.33483 | -97.42312 | 29049 ft | 441 kts | 211° |
| 2026-05-05 07:25 | 31.29695 | -97.44087 | 29386 ft | 443 kts | 211° |
| 2026-05-05 07:25 | 31.26824 | -97.45432 | 29640 ft | 445 kts | 211° |
| 2026-05-05 07:25 | 31.23934 | -97.46785 | 29886 ft | 447 kts | 211° |
| 2026-05-05 07:26 | 31.22016 | -97.47681 | 30026 ft | 448 kts | 211° |
| 2026-05-05 07:26 | 31.19113 | -97.49038 | 30224 ft | 450 kts | 211° |
| 2026-05-05 07:26 | 31.16197 | -97.50400 | 30437 ft | 451 kts | 211° |
| 2026-05-05 07:26 | 31.13274 | -97.51765 | 30639 ft | 453 kts | 211° |
| 2026-05-05 07:27 | 31.09390 | -97.53577 | 30889 ft | 455 kts | 211° |
| 2026-05-05 07:27 | 31.07404 | -97.54503 | 30996 ft | 456 kts | 211° |
| 2026-05-05 07:27 | 31.04455 | -97.55876 | 31180 ft | 457 kts | 211° |
| 2026-05-05 07:27 | 31.01536 | -97.57235 | 31367 ft | 458 kts | 211° |
| 2026-05-05 07:28 | 30.98564 | -97.58618 | 31557 ft | 459 kts | 211° |
| 2026-05-05 07:28 | 30.95594 | -97.59999 | 31744 ft | 460 kts | 211° |
| 2026-05-05 07:28 | 30.92602 | -97.61390 | 31843 ft | 464 kts | 211° |
| 2026-05-05 07:29 | 30.86583 | -97.64181 | 31851 ft | 463 kts | 211° |
| 2026-05-05 07:29 | 30.80659 | -97.66927 | 31874 ft | 459 kts | 211° |
| 2026-05-05 07:30 | 30.74707 | -97.69685 | 31878 ft | 459 kts | 211° |
| 2026-05-05 07:30 | 30.65786 | -97.73807 | 31868 ft | 460 kts | 210° |
| 2026-05-05 07:31 | 30.60041 | -97.76811 | 31892 ft | 448 kts | 220° |
| 2026-05-05 07:31 | 30.55290 | -97.81255 | 31910 ft | 433 kts | 235° |
| 2026-05-05 07:32 | 30.51511 | -97.86649 | 31916 ft | 430 kts | 238° |
| 2026-05-05 07:32 | 30.47793 | -97.92091 | 31919 ft | 430 kts | 238° |
| 2026-05-05 07:33 | 30.44102 | -97.97500 | 31915 ft | 430 kts | 238° |
| 2026-05-05 07:33 | 30.40377 | -98.02941 | 31903 ft | 430 kts | 238° |
| 2026-05-05 07:34 | 30.36659 | -98.08372 | 31889 ft | 431 kts | 237° |
| 2026-05-05 07:34 | 30.32945 | -98.13784 | 31870 ft | 431 kts | 237° |
| 2026-05-05 07:35 | 30.29201 | -98.19236 | 31845 ft | 432 kts | 237° |
| 2026-05-05 07:35 | 30.25447 | -98.24693 | 31839 ft | 434 kts | 237° |
| 2026-05-05 07:36 | 30.21687 | -98.30153 | 31836 ft | 434 kts | 237° |
| 2026-05-05 07:36 | 30.17917 | -98.35618 | 31831 ft | 433 kts | 237° |
| 2026-05-05 07:37 | 30.14189 | -98.41017 | 31835 ft | 433 kts | 237° |
| 2026-05-05 07:37 | 30.10413 | -98.46477 | 31834 ft | 435 kts | 237° |
| 2026-05-05 07:38 | 30.06626 | -98.51944 | 31834 ft | 436 kts | 237° |
| 2026-05-05 07:38 | 30.02860 | -98.57376 | 31828 ft | 436 kts | 237° |
| 2026-05-05 07:39 | 29.99069 | -98.62834 | 31834 ft | 436 kts | 237° |
| 2026-05-05 07:39 | 29.95273 | -98.68294 | 31828 ft | 434 kts | 237° |
| 2026-05-05 07:40 | 29.91492 | -98.73724 | 31853 ft | 434 kts | 237° |
| 2026-05-05 07:40 | 29.87711 | -98.79148 | 31860 ft | 434 kts | 237° |
| 2026-05-05 07:41 | 29.83941 | -98.84548 | 31865 ft | 436 kts | 237° |
| 2026-05-05 07:41 | 29.80129 | -98.90000 | 31870 ft | 436 kts | 237° |
| 2026-05-05 07:42 | 29.76310 | -98.95456 | 31871 ft | 437 kts | 237° |
| 2026-05-05 07:42 | 29.72487 | -99.00909 | 31863 ft | 437 kts | 237° |
| 2026-05-05 07:43 | 29.68690 | -99.06319 | 31854 ft | 437 kts | 237° |
| 2026-05-05 07:43 | 29.64867 | -99.11758 | 31848 ft | 437 kts | 237° |
| 2026-05-05 07:44 | 29.61041 | -99.17194 | 31859 ft | 436 kts | 237° |
| 2026-05-05 07:44 | 29.57234 | -99.22598 | 31865 ft | 438 kts | 237° |
| 2026-05-05 07:45 | 29.53390 | -99.28043 | 31869 ft | 439 kts | 237° |
| 2026-05-05 07:45 | 29.49544 | -99.33485 | 31871 ft | 438 kts | 237° |
| 2026-05-05 07:46 | 29.45714 | -99.38898 | 31865 ft | 436 kts | 237° |
| 2026-05-05 07:46 | 29.41904 | -99.44277 | 31859 ft | 436 kts | 237° |
| 2026-05-05 07:47 | 29.38063 | -99.49691 | 31849 ft | 437 kts | 237° |
| 2026-05-05 07:47 | 29.34217 | -99.55105 | 31854 ft | 438 kts | 237° |
| 2026-05-05 07:48 | 29.30356 | -99.60532 | 31854 ft | 439 kts | 237° |
| 2026-05-05 07:48 | 29.26529 | -99.65905 | 31869 ft | 437 kts | 237° |
| 2026-05-05 07:49 | 29.22675 | -99.71310 | 31864 ft | 437 kts | 236° |
| 2026-05-05 07:49 | 29.18825 | -99.76701 | 31864 ft | 437 kts | 236° |
| 2026-05-05 07:50 | 29.14967 | -99.82095 | 31861 ft | 438 kts | 236° |
| 2026-05-05 07:50 | 29.11096 | -99.87501 | 31853 ft | 439 kts | 236° |
| 2026-05-05 07:51 | 29.07237 | -99.92884 | 31848 ft | 440 kts | 236° |
| 2026-05-05 07:51 | 29.03343 | -99.98309 | 31838 ft | 440 kts | 236° |
| 2026-05-05 07:52 | 28.99484 | -100.03676 | 31830 ft | 439 kts | 236° |
| 2026-05-05 07:52 | 28.95613 | -100.09055 | 31827 ft | 437 kts | 236° |
| 2026-05-05 07:53 | 28.91747 | -100.14420 | 31825 ft | 438 kts | 236° |
| 2026-05-05 07:53 | 28.87863 | -100.19801 | 31826 ft | 439 kts | 236° |
| 2026-05-05 07:54 | 28.83996 | -100.25154 | 31825 ft | 440 kts | 236° |
| 2026-05-05 07:54 | 28.80095 | -100.30545 | 31820 ft | 440 kts | 236° |
| 2026-05-05 07:55 | 28.76197 | -100.35925 | 31815 ft | 438 kts | 236° |
| 2026-05-05 07:55 | 28.72338 | -100.41244 | 31816 ft | 436 kts | 235° |
| 2026-05-05 07:56 | 28.68460 | -100.46585 | 31816 ft | 437 kts | 235° |
| 2026-05-05 07:56 | 28.64571 | -100.51932 | 31815 ft | 439 kts | 235° |
| 2026-05-05 07:57 | 28.60662 | -100.57276 | 31822 ft | 439 kts | 235° |
| 2026-05-05 07:57 | 28.56745 | -100.62566 | 31818 ft | 437 kts | 235° |
| 2026-05-05 07:58 | 28.52843 | -100.67864 | 31814 ft | 436 kts | 235° |
| 2026-05-05 07:58 | 28.48937 | -100.73144 | 31813 ft | 435 kts | 235° |
| 2026-05-05 07:59 | 28.45067 | -100.78378 | 31822 ft | 435 kts | 235° |
| 2026-05-05 07:59 | 28.41161 | -100.83647 | 31819 ft | 436 kts | 234° |
| 2026-05-05 08:00 | 28.37250 | -100.88919 | 31823 ft | 436 kts | 234° |
| 2026-05-05 08:00 | 28.33356 | -100.94162 | 31823 ft | 436 kts | 234° |
| 2026-05-05 08:01 | 28.29440 | -100.99426 | 31823 ft | 435 kts | 234° |
| 2026-05-05 08:01 | 28.25536 | -101.04669 | 31818 ft | 434 kts | 234° |
| 2026-05-05 08:02 | 28.21637 | -101.09898 | 31822 ft | 433 kts | 234° |
| 2026-05-05 08:02 | 28.17764 | -101.15087 | 31818 ft | 433 kts | 234° |
| 2026-05-05 08:03 | 28.13857 | -101.20314 | 31825 ft | 434 kts | 234° |
| 2026-05-05 08:03 | 28.09954 | -101.25530 | 31825 ft | 434 kts | 234° |
| 2026-05-05 08:04 | 28.06038 | -101.30756 | 31825 ft | 434 kts | 234° |
| 2026-05-05 08:04 | 28.02151 | -101.35937 | 31835 ft | 434 kts | 234° |
| 2026-05-05 08:05 | 27.98236 | -101.41149 | 31841 ft | 434 kts | 234° |
| 2026-05-05 08:05 | 27.94326 | -101.46348 | 31834 ft | 433 kts | 234° |
| 2026-05-05 08:06 | 27.90424 | -101.51530 | 31839 ft | 432 kts | 234° |
| 2026-05-05 08:06 | 27.86518 | -101.56713 | 31840 ft | 434 kts | 234° |
| 2026-05-05 08:07 | 27.82591 | -101.61913 | 31850 ft | 435 kts | 234° |
| 2026-05-05 08:07 | 27.78681 | -101.67088 | 31866 ft | 436 kts | 234° |
| 2026-05-05 08:08 | 27.74751 | -101.72281 | 31869 ft | 434 kts | 233° |
| 2026-05-05 08:08 | 27.70830 | -101.77458 | 31884 ft | 433 kts | 233° |
| 2026-05-05 08:09 | 27.66906 | -101.82631 | 31876 ft | 433 kts | 233° |
| 2026-05-05 08:09 | 27.62974 | -101.87809 | 31886 ft | 434 kts | 233° |
| 2026-05-05 08:10 | 27.59063 | -101.92954 | 31882 ft | 434 kts | 233° |
| 2026-05-05 08:10 | 27.55125 | -101.98126 | 31895 ft | 434 kts | 233° |
| 2026-05-05 08:11 | 27.51199 | -102.03277 | 31890 ft | 433 kts | 233° |
| 2026-05-05 08:11 | 27.47267 | -102.08431 | 31890 ft | 433 kts | 233° |
| 2026-05-05 08:12 | 27.43331 | -102.13582 | 31888 ft | 433 kts | 233° |
| 2026-05-05 08:12 | 27.39428 | -102.18685 | 31881 ft | 432 kts | 233° |
| 2026-05-05 08:13 | 27.36157 | -102.22957 | 31889 ft | 432 kts | 233° |
| 2026-05-05 08:13 | 27.32226 | -102.28086 | 31884 ft | 433 kts | 233° |
| 2026-05-05 08:14 | 27.28284 | -102.33221 | 31887 ft | 433 kts | 233° |
| 2026-05-05 08:14 | 27.24365 | -102.38323 | 31884 ft | 434 kts | 233° |
| 2026-05-05 08:15 | 27.20408 | -102.43466 | 31877 ft | 434 kts | 232° |
| 2026-05-05 08:15 | 27.16455 | -102.48599 | 31886 ft | 434 kts | 232° |
| 2026-05-05 08:16 | 27.12494 | -102.53736 | 31883 ft | 434 kts | 232° |
| 2026-05-05 08:16 | 27.08564 | -102.58825 | 31876 ft | 434 kts | 232° |
| 2026-05-05 08:17 | 27.04606 | -102.63948 | 31882 ft | 435 kts | 232° |
| 2026-05-05 08:17 | 27.00630 | -102.69086 | 31885 ft | 435 kts | 232° |
| 2026-05-05 08:18 | 26.96685 | -102.74177 | 31876 ft | 434 kts | 232° |
| 2026-05-05 08:18 | 26.92730 | -102.79276 | 31874 ft | 432 kts | 232° |
| 2026-05-05 08:19 | 26.88767 | -102.84381 | 31870 ft | 434 kts | 232° |
| 2026-05-05 08:19 | 26.84796 | -102.89488 | 31882 ft | 434 kts | 232° |
| 2026-05-05 08:20 | 26.80854 | -102.94552 | 31875 ft | 434 kts | 232° |
| 2026-05-05 08:20 | 26.76880 | -102.99653 | 31875 ft | 434 kts | 232° |
| 2026-05-05 08:21 | 26.72904 | -103.04749 | 31881 ft | 434 kts | 232° |
| 2026-05-05 08:21 | 26.68953 | -103.09808 | 31883 ft | 434 kts | 231° |
| 2026-05-05 08:22 | 26.64982 | -103.14886 | 31879 ft | 433 kts | 231° |
| 2026-05-05 08:22 | 26.61020 | -103.19948 | 31878 ft | 432 kts | 231° |
| 2026-05-05 08:23 | 26.57052 | -103.25011 | 31877 ft | 433 kts | 231° |
| 2026-05-05 08:23 | 26.53069 | -103.30088 | 31884 ft | 434 kts | 231° |
| 2026-05-05 08:24 | 26.49101 | -103.35139 | 31886 ft | 435 kts | 231° |
| 2026-05-05 08:24 | 26.45110 | -103.40214 | 31886 ft | 434 kts | 231° |
| 2026-05-05 08:25 | 26.41128 | -103.45271 | 31879 ft | 433 kts | 231° |
| 2026-05-05 08:25 | 26.37151 | -103.50317 | 31876 ft | 433 kts | 231° |
| 2026-05-05 08:26 | 26.33176 | -103.55354 | 31878 ft | 434 kts | 231° |
| 2026-05-05 08:26 | 26.29204 | -103.60382 | 31876 ft | 434 kts | 231° |
| 2026-05-05 08:27 | 26.25216 | -103.65424 | 31876 ft | 433 kts | 231° |
| 2026-05-05 08:27 | 26.21237 | -103.70450 | 31873 ft | 433 kts | 231° |
| 2026-05-05 08:28 | 26.17247 | -103.75483 | 31872 ft | 433 kts | 231° |
| 2026-05-05 08:28 | 26.13253 | -103.80516 | 31875 ft | 433 kts | 231° |
| 2026-05-05 08:29 | 26.09286 | -103.85510 | 31881 ft | 433 kts | 231° |
| 2026-05-05 08:30 | 26.03282 | -103.93057 | 31882 ft | 434 kts | 230° |
| 2026-05-05 08:30 | 25.99280 | -103.98080 | 31889 ft | 433 kts | 230° |
| 2026-05-05 08:31 | 25.95283 | -104.03092 | 31890 ft | 433 kts | 230° |
| 2026-05-05 08:31 | 25.91292 | -104.08090 | 31895 ft | 434 kts | 230° |
| 2026-05-05 08:32 | 25.87280 | -104.13109 | 31906 ft | 435 kts | 230° |
| 2026-05-05 08:32 | 25.83250 | -104.18146 | 31911 ft | 434 kts | 230° |
| 2026-05-05 08:33 | 25.79242 | -104.23148 | 31908 ft | 433 kts | 230° |
| 2026-05-05 08:33 | 25.75252 | -104.28124 | 31912 ft | 433 kts | 230° |
| 2026-05-05 08:34 | 25.71241 | -104.33120 | 31912 ft | 434 kts | 230° |
| 2026-05-05 08:34 | 25.67216 | -104.38128 | 31914 ft | 435 kts | 230° |
| 2026-05-05 08:35 | 25.63184 | -104.43139 | 31923 ft | 435 kts | 230° |
| 2026-05-05 08:35 | 25.59177 | -104.48113 | 31923 ft | 435 kts | 230° |
| 2026-05-05 08:36 | 25.55136 | -104.53124 | 31926 ft | 436 kts | 230° |
| 2026-05-05 08:36 | 25.51106 | -104.58117 | 31922 ft | 436 kts | 230° |
| 2026-05-05 08:37 | 25.47050 | -104.63136 | 31926 ft | 437 kts | 230° |
| 2026-05-05 08:37 | 25.42989 | -104.68155 | 31928 ft | 437 kts | 230° |
| 2026-05-05 08:38 | 25.38930 | -104.73166 | 31935 ft | 437 kts | 230° |
| 2026-05-05 08:38 | 25.34869 | -104.78175 | 31936 ft | 437 kts | 230° |
| 2026-05-05 08:39 | 25.30833 | -104.83147 | 31937 ft | 437 kts | 230° |
| 2026-05-05 08:39 | 25.26546 | -104.87913 | 31965 ft | 440 kts | 219° |
| 2026-05-05 08:40 | 25.21363 | -104.91587 | 31970 ft | 444 kts | 214° |
| 2026-05-05 08:40 | 25.16066 | -104.95143 | 31977 ft | 444 kts | 214° |
| 2026-05-05 08:41 | 25.10812 | -104.98675 | 31987 ft | 444 kts | 214° |
| 2026-05-05 08:41 | 25.05527 | -105.02222 | 31991 ft | 444 kts | 214° |
| 2026-05-05 08:42 | 25.00243 | -105.05765 | 32006 ft | 444 kts | 214° |
| 2026-05-05 08:42 | 24.94968 | -105.09297 | 32016 ft | 442 kts | 214° |
| 2026-05-05 08:43 | 24.89741 | -105.12795 | 32019 ft | 441 kts | 214° |
| 2026-05-05 08:43 | 24.84482 | -105.16311 | 32028 ft | 442 kts | 214° |
| 2026-05-05 08:44 | 24.79203 | -105.19836 | 32039 ft | 444 kts | 214° |
| 2026-05-05 08:44 | 24.73917 | -105.23362 | 32052 ft | 444 kts | 214° |
| 2026-05-05 08:45 | 24.68672 | -105.26857 | 32056 ft | 442 kts | 214° |
| 2026-05-05 08:45 | 24.63420 | -105.30354 | 32061 ft | 441 kts | 213° |
| 2026-05-05 08:46 | 24.58162 | -105.33852 | 32190 ft | 443 kts | 213° |
| 2026-05-05 08:46 | 24.55520 | -105.35607 | 32424 ft | 444 kts | 213° |
| 2026-05-05 08:46 | 24.52862 | -105.37373 | 32594 ft | 445 kts | 213° |
| 2026-05-05 08:46 | 24.50206 | -105.39137 | 32778 ft | 447 kts | 213° |
| 2026-05-05 08:47 | 24.47535 | -105.40910 | 32963 ft | 448 kts | 213° |
| 2026-05-05 08:47 | 24.44892 | -105.42663 | 33142 ft | 449 kts | 213° |
| 2026-05-05 08:47 | 24.42215 | -105.44437 | 33310 ft | 450 kts | 213° |
| 2026-05-05 08:47 | 24.39528 | -105.46217 | 33476 ft | 451 kts | 213° |
| 2026-05-05 08:48 | 24.36835 | -105.48001 | 33633 ft | 453 kts | 213° |
| 2026-05-05 08:48 | 24.34133 | -105.49790 | 33807 ft | 454 kts | 213° |
| 2026-05-05 08:48 | 24.31426 | -105.51580 | 33961 ft | 455 kts | 213° |
| 2026-05-05 08:48 | 24.28711 | -105.53376 | 34115 ft | 456 kts | 213° |
| 2026-05-05 08:49 | 24.25975 | -105.55185 | 34098 ft | 460 kts | 213° |
| 2026-05-05 08:49 | 24.20499 | -105.58801 | 34089 ft | 457 kts | 213° |
| 2026-05-05 08:50 | 24.15096 | -105.62366 | 34081 ft | 456 kts | 213° |
| 2026-05-05 08:50 | 24.09655 | -105.65952 | 34074 ft | 456 kts | 213° |
| 2026-05-05 08:51 | 24.04217 | -105.69532 | 34063 ft | 456 kts | 213° |
| 2026-05-05 08:51 | 23.98780 | -105.73109 | 34050 ft | 456 kts | 213° |
| 2026-05-05 08:52 | 23.93337 | -105.76686 | 34055 ft | 457 kts | 213° |
| 2026-05-05 08:52 | 23.87907 | -105.80251 | 34044 ft | 457 kts | 213° |
| 2026-05-05 08:53 | 23.82449 | -105.83831 | 34029 ft | 458 kts | 213° |
| 2026-05-05 08:53 | 23.76971 | -105.87419 | 34030 ft | 459 kts | 213° |
| 2026-05-05 08:54 | 23.71488 | -105.91008 | 34026 ft | 459 kts | 213° |
| 2026-05-05 08:54 | 23.66030 | -105.94578 | 34010 ft | 459 kts | 213° |
| 2026-05-05 08:55 | 23.60541 | -105.98163 | 33988 ft | 460 kts | 213° |
| 2026-05-05 08:55 | 23.55041 | -106.01752 | 33981 ft | 460 kts | 213° |
| 2026-05-05 08:56 | 23.49541 | -106.05338 | 33983 ft | 461 kts | 213° |
| 2026-05-05 08:56 | 23.44057 | -106.08910 | 33974 ft | 463 kts | 213° |
| 2026-05-05 08:57 | 23.38514 | -106.12516 | 33977 ft | 463 kts | 213° |
| 2026-05-05 08:57 | 23.32986 | -106.16110 | 33973 ft | 461 kts | 213° |
| 2026-05-05 08:58 | 23.27507 | -106.19668 | 33984 ft | 461 kts | 213° |
| 2026-05-05 08:58 | 23.21982 | -106.23252 | 33988 ft | 462 kts | 212° |
| 2026-05-05 08:59 | 23.16917 | -106.26592 | 33990 ft | 462 kts | 218° |
| 2026-05-05 08:59 | 23.12147 | -106.31240 | 34002 ft | 461 kts | 225° |
| 2026-05-05 09:00 | 23.07572 | -106.36059 | 33996 ft | 461 kts | 225° |
| 2026-05-05 09:00 | 23.02983 | -106.40916 | 33983 ft | 461 kts | 225° |
| 2026-05-05 09:01 | 22.98383 | -106.45765 | 33967 ft | 460 kts | 225° |
| 2026-05-05 09:01 | 22.93787 | -106.50612 | 33952 ft | 460 kts | 225° |
| 2026-05-05 09:02 | 22.89197 | -106.55445 | 33946 ft | 460 kts | 225° |
| 2026-05-05 09:02 | 22.84593 | -106.60289 | 33945 ft | 461 kts | 225° |
| 2026-05-05 09:03 | 22.80009 | -106.65105 | 33947 ft | 462 kts | 224° |
| 2026-05-05 09:03 | 22.76154 | -106.69154 | 33945 ft | 463 kts | 224° |
| 2026-05-05 09:04 | 22.71525 | -106.74010 | 33947 ft | 461 kts | 224° |
| 2026-05-05 09:04 | 22.66161 | -106.79631 | 33939 ft | 460 kts | 224° |
| 2026-05-05 09:05 | 22.61568 | -106.84440 | 33937 ft | 460 kts | 224° |
| 2026-05-05 09:05 | 22.57735 | -106.88448 | 33940 ft | 461 kts | 224° |
| 2026-05-05 09:06 | 22.53107 | -106.93284 | 33944 ft | 462 kts | 224° |
| 2026-05-05 09:06 | 22.48479 | -106.98116 | 33939 ft | 463 kts | 224° |
| 2026-05-05 09:07 | 22.43847 | -107.02947 | 33942 ft | 463 kts | 224° |
| 2026-05-05 09:07 | 22.39211 | -107.07777 | 33947 ft | 463 kts | 224° |
| 2026-05-05 09:08 | 22.34576 | -107.12601 | 33938 ft | 463 kts | 224° |
| 2026-05-05 09:08 | 22.29938 | -107.17424 | 33936 ft | 462 kts | 224° |
| 2026-05-05 09:09 | 22.25325 | -107.22216 | 33933 ft | 462 kts | 224° |
| 2026-05-05 09:09 | 22.20693 | -107.27023 | 33933 ft | 462 kts | 224° |
| 2026-05-05 09:10 | 22.16049 | -107.31838 | 33934 ft | 463 kts | 224° |
| 2026-05-05 09:10 | 22.11407 | -107.36646 | 33933 ft | 463 kts | 224° |
| 2026-05-05 09:11 | 22.06748 | -107.41467 | 33933 ft | 464 kts | 224° |
| 2026-05-05 09:11 | 22.02195 | -107.46393 | 33960 ft | 463 kts | 229° |
| 2026-05-05 09:12 | 21.97930 | -107.51586 | 33947 ft | 465 kts | 228° |
| 2026-05-05 09:12 | 21.93645 | -107.56806 | 33946 ft | 465 kts | 228° |
| 2026-05-05 09:13 | 21.89352 | -107.62034 | 33944 ft | 465 kts | 228° |
| 2026-05-05 09:13 | 21.85088 | -107.67213 | 33945 ft | 464 kts | 228° |
| 2026-05-05 09:14 | 21.80809 | -107.72413 | 33945 ft | 463 kts | 228° |
| 2026-05-05 09:14 | 21.76531 | -107.77602 | 33940 ft | 463 kts | 228° |
| 2026-05-05 09:15 | 21.72241 | -107.82803 | 33940 ft | 465 kts | 228° |
| 2026-05-05 09:15 | 21.67946 | -107.88004 | 33941 ft | 465 kts | 227° |
| 2026-05-05 09:16 | 21.63652 | -107.93198 | 33942 ft | 465 kts | 227° |
| 2026-05-05 09:16 | 21.59382 | -107.98360 | 33947 ft | 465 kts | 227° |
| 2026-05-05 09:17 | 21.55073 | -108.03562 | 33947 ft | 466 kts | 227° |
| 2026-05-05 09:17 | 21.50754 | -108.08773 | 33945 ft | 465 kts | 227° |
| 2026-05-05 09:18 | 21.46465 | -108.13942 | 33946 ft | 467 kts | 227° |
| 2026-05-05 09:18 | 21.42135 | -108.19154 | 33946 ft | 466 kts | 227° |
| 2026-05-05 09:19 | 21.37810 | -108.24356 | 33950 ft | 468 kts | 227° |
| 2026-05-05 09:19 | 21.33472 | -108.29570 | 33948 ft | 468 kts | 227° |
| 2026-05-05 09:20 | 21.29134 | -108.34777 | 33952 ft | 468 kts | 227° |
| 2026-05-05 09:20 | 21.24783 | -108.39995 | 33950 ft | 469 kts | 227° |
| 2026-05-05 09:21 | 21.20458 | -108.45178 | 33956 ft | 469 kts | 227° |
| 2026-05-05 09:21 | 21.16102 | -108.50391 | 33952 ft | 470 kts | 227° |
| 2026-05-05 09:22 | 21.11740 | -108.55608 | 33957 ft | 470 kts | 227° |
| 2026-05-05 09:22 | 21.07379 | -108.60818 | 33959 ft | 469 kts | 227° |
| 2026-05-05 09:23 | 21.03007 | -108.66037 | 33958 ft | 471 kts | 227° |
| 2026-05-05 09:23 | 20.98657 | -108.71225 | 33962 ft | 471 kts | 227° |
| 2026-05-05 09:24 | 20.94269 | -108.76452 | 33962 ft | 471 kts | 227° |
| 2026-05-05 09:24 | 20.89884 | -108.81671 | 33968 ft | 471 kts | 227° |
| 2026-05-05 09:25 | 20.85512 | -108.86871 | 33961 ft | 469 kts | 227° |
| 2026-05-05 09:25 | 20.81138 | -108.92067 | 33964 ft | 471 kts | 227° |
| 2026-05-05 09:26 | 20.76743 | -108.97283 | 33964 ft | 471 kts | 227° |
| 2026-05-05 09:26 | 20.72389 | -109.02446 | 33968 ft | 471 kts | 227° |
| 2026-05-05 09:27 | 20.67996 | -109.07649 | 33966 ft | 471 kts | 227° |
| 2026-05-05 09:27 | 20.63597 | -109.12857 | 33970 ft | 471 kts | 227° |
| 2026-05-05 09:28 | 20.59228 | -109.18023 | 33971 ft | 471 kts | 227° |
| 2026-05-05 09:28 | 20.54828 | -109.23221 | 33975 ft | 471 kts | 227° |
| 2026-05-05 09:29 | 20.50433 | -109.28408 | 33972 ft | 471 kts | 227° |
| 2026-05-05 09:29 | 20.46030 | -109.33599 | 33971 ft | 471 kts | 227° |
| 2026-05-05 09:30 | 20.41620 | -109.38795 | 33972 ft | 472 kts | 227° |
| 2026-05-05 09:30 | 20.37227 | -109.43965 | 33979 ft | 474 kts | 227° |
| 2026-05-05 09:31 | 20.32793 | -109.49180 | 33979 ft | 474 kts | 227° |
| 2026-05-05 09:31 | 20.28356 | -109.54393 | 33984 ft | 473 kts | 227° |
| 2026-05-05 09:32 | 20.23959 | -109.59554 | 33981 ft | 473 kts | 227° |
| 2026-05-05 09:32 | 20.19531 | -109.64749 | 33981 ft | 473 kts | 227° |
| 2026-05-05 09:33 | 20.15091 | -109.69952 | 33985 ft | 474 kts | 227° |
| 2026-05-05 09:33 | 20.10676 | -109.75121 | 33982 ft | 474 kts | 227° |
| 2026-05-05 09:34 | 20.06234 | -109.80317 | 33985 ft | 475 kts | 227° |
| 2026-05-05 09:34 | 20.01785 | -109.85517 | 33983 ft | 475 kts | 227° |
| 2026-05-05 09:35 | 19.97334 | -109.90715 | 33990 ft | 476 kts | 227° |
| 2026-05-05 09:35 | 19.90642 | -109.98520 | 33988 ft | 475 kts | 227° |
| 2026-05-05 09:36 | 19.86201 | -110.03694 | 33982 ft | 474 kts | 227° |
| 2026-05-05 09:36 | 19.81749 | -110.08876 | 33983 ft | 475 kts | 227° |
| 2026-05-05 09:37 | 19.77314 | -110.14035 | 33987 ft | 475 kts | 227° |
| 2026-05-05 09:37 | 19.72847 | -110.19226 | 33987 ft | 476 kts | 227° |
| 2026-05-05 09:38 | 19.68368 | -110.24426 | 33992 ft | 477 kts | 227° |
| 2026-05-05 09:38 | 19.63881 | -110.29630 | 33991 ft | 478 kts | 227° |
| 2026-05-05 09:39 | 19.59387 | -110.34838 | 33994 ft | 478 kts | 227° |
| 2026-05-05 09:39 | 19.54926 | -110.40002 | 33995 ft | 477 kts | 227° |
| 2026-05-05 09:40 | 19.50442 | -110.45190 | 33995 ft | 476 kts | 226° |
| 2026-05-05 09:40 | 19.45967 | -110.50362 | 33994 ft | 476 kts | 226° |
| 2026-05-05 09:41 | 19.41474 | -110.55550 | 33991 ft | 478 kts | 226° |
| 2026-05-05 09:41 | 19.36993 | -110.60720 | 33993 ft | 479 kts | 226° |
| 2026-05-05 09:42 | 19.32480 | -110.65922 | 33997 ft | 480 kts | 226° |
| 2026-05-05 09:42 | 19.27953 | -110.71136 | 33999 ft | 479 kts | 226° |
| 2026-05-05 09:43 | 19.23437 | -110.76333 | 33997 ft | 479 kts | 226° |
| 2026-05-05 09:43 | 19.18952 | -110.81488 | 33994 ft | 478 kts | 226° |
| 2026-05-05 09:44 | 19.14437 | -110.86675 | 33994 ft | 479 kts | 226° |
| 2026-05-05 09:44 | 19.09916 | -110.91864 | 33995 ft | 480 kts | 226° |
| 2026-05-05 09:45 | 19.05388 | -110.97056 | 33996 ft | 479 kts | 226° |
| 2026-05-05 09:45 | 19.00892 | -111.02208 | 33994 ft | 479 kts | 226° |
| 2026-05-05 09:46 | 18.96365 | -111.07389 | 34001 ft | 479 kts | 226° |
| 2026-05-05 09:46 | 18.91833 | -111.12572 | 34000 ft | 480 kts | 226° |
| 2026-05-05 09:47 | 18.87287 | -111.17768 | 34002 ft | 482 kts | 226° |
| 2026-05-05 09:47 | 18.82735 | -111.22966 | 34003 ft | 482 kts | 226° |
| 2026-05-05 09:48 | 18.78199 | -111.28140 | 34005 ft | 483 kts | 226° |
| 2026-05-05 09:48 | 18.73636 | -111.33341 | 34008 ft | 483 kts | 226° |
| 2026-05-05 09:49 | 18.69068 | -111.38544 | 34007 ft | 483 kts | 226° |
| 2026-05-05 09:49 | 18.64487 | -111.43756 | 34004 ft | 484 kts | 226° |
| 2026-05-05 09:50 | 18.59902 | -111.48969 | 34003 ft | 484 kts | 226° |
| 2026-05-05 09:50 | 18.55349 | -111.54141 | 34009 ft | 484 kts | 226° |
| 2026-05-05 09:51 | 18.51538 | -111.58466 | 34003 ft | 485 kts | 226° |
| 2026-05-05 09:51 | 18.46938 | -111.63684 | 34005 ft | 485 kts | 226° |
| 2026-05-05 09:52 | 18.42349 | -111.68884 | 34008 ft | 485 kts | 226° |
| 2026-05-05 09:52 | 18.37743 | -111.74100 | 34008 ft | 486 kts | 226° |
| 2026-05-05 09:53 | 18.33138 | -111.79310 | 34005 ft | 485 kts | 226° |
| 2026-05-05 09:53 | 18.28530 | -111.84518 | 34009 ft | 486 kts | 226° |
| 2026-05-05 09:54 | 18.23916 | -111.89729 | 34008 ft | 486 kts | 226° |
| 2026-05-05 09:54 | 18.19304 | -111.94934 | 34006 ft | 487 kts | 226° |
| 2026-05-05 09:55 | 18.14712 | -112.00112 | 34007 ft | 486 kts | 226° |
| 2026-05-05 09:55 | 18.10229 | -112.05464 | 34009 ft | 488 kts | 227° |
| 2026-05-05 09:56 | 18.05733 | -112.10841 | 34018 ft | 490 kts | 228° |
| 2026-05-05 09:56 | 18.01273 | -112.16268 | 34016 ft | 490 kts | 228° |
| 2026-05-05 09:57 | 17.96794 | -112.21660 | 34008 ft | 490 kts | 228° |
| 2026-05-05 09:57 | 17.92331 | -112.27055 | 34007 ft | 489 kts | 228° |
| 2026-05-05 09:58 | 17.87882 | -112.32417 | 34009 ft | 489 kts | 227° |
| 2026-05-05 09:58 | 17.83408 | -112.37808 | 34017 ft | 490 kts | 227° |
| 2026-05-05 09:59 | 17.78920 | -112.43210 | 34006 ft | 491 kts | 227° |
| 2026-05-05 09:59 | 17.74423 | -112.48620 | 34009 ft | 492 kts | 227° |
| 2026-05-05 10:00 | 17.69951 | -112.53995 | 34010 ft | 491 kts | 227° |
| 2026-05-05 10:00 | 17.65470 | -112.59377 | 34006 ft | 487 kts | 227° |
| 2026-05-05 10:01 | 17.61048 | -112.64682 | 34003 ft | 480 kts | 227° |
| 2026-05-05 10:01 | 17.56651 | -112.69953 | 34002 ft | 480 kts | 227° |
| 2026-05-05 10:02 | 17.52253 | -112.75223 | 33997 ft | 479 kts | 227° |
| 2026-05-05 10:02 | 17.47872 | -112.80466 | 34003 ft | 480 kts | 227° |
| 2026-05-05 10:03 | 17.43463 | -112.85740 | 34001 ft | 481 kts | 227° |
| 2026-05-05 10:03 | 17.39048 | -112.91017 | 34008 ft | 481 kts | 227° |
| 2026-05-05 10:04 | 17.34660 | -112.96256 | 34004 ft | 481 kts | 227° |
| 2026-05-05 10:04 | 17.30245 | -113.01524 | 34003 ft | 481 kts | 227° |
| 2026-05-05 10:05 | 17.25820 | -113.06801 | 34009 ft | 482 kts | 227° |
| 2026-05-05 10:05 | 17.21384 | -113.12085 | 34013 ft | 482 kts | 227° |
| 2026-05-05 10:06 | 17.16974 | -113.17335 | 34006 ft | 483 kts | 227° |
| 2026-05-05 10:06 | 17.12527 | -113.22625 | 34008 ft | 484 kts | 228° |
| 2026-05-05 10:07 | 17.08171 | -113.28012 | 34012 ft | 485 kts | 229° |
| 2026-05-05 10:07 | 17.03783 | -113.33380 | 34013 ft | 484 kts | 228° |
| 2026-05-05 10:08 | 16.99414 | -113.38735 | 34013 ft | 484 kts | 229° |
| 2026-05-05 10:08 | 16.95047 | -113.44086 | 34009 ft | 483 kts | 228° |
| 2026-05-05 10:09 | 16.90680 | -113.49424 | 34007 ft | 483 kts | 229° |
| 2026-05-05 10:09 | 16.86349 | -113.54723 | 34005 ft | 483 kts | 228° |
| 2026-05-05 10:10 | 16.81971 | -113.60067 | 34007 ft | 484 kts | 229° |
| 2026-05-05 10:10 | 16.77590 | -113.65417 | 34015 ft | 485 kts | 228° |
| 2026-05-05 10:11 | 16.73193 | -113.70779 | 34009 ft | 486 kts | 228° |
| 2026-05-05 10:11 | 16.68827 | -113.76100 | 34004 ft | 486 kts | 229° |
| 2026-05-05 10:12 | 16.64434 | -113.81449 | 34008 ft | 486 kts | 229° |
| 2026-05-05 10:12 | 16.60030 | -113.86808 | 34009 ft | 486 kts | 228° |
| 2026-05-05 10:13 | 16.55623 | -113.92167 | 34007 ft | 486 kts | 229° |
| 2026-05-05 10:13 | 16.51257 | -113.97472 | 34006 ft | 484 kts | 229° |
| 2026-05-05 10:14 | 16.46865 | -114.02803 | 34001 ft | 485 kts | 229° |
| 2026-05-05 10:14 | 16.42465 | -114.08142 | 34002 ft | 486 kts | 228° |
| 2026-05-05 10:15 | 16.38059 | -114.13483 | 34005 ft | 486 kts | 228° |
| 2026-05-05 10:15 | 16.33648 | -114.18825 | 34003 ft | 486 kts | 228° |
| 2026-05-05 10:16 | 16.29263 | -114.24133 | 34001 ft | 486 kts | 228° |
| 2026-05-05 10:16 | 16.24840 | -114.29481 | 34004 ft | 488 kts | 228° |
| 2026-05-05 10:17 | 16.20405 | -114.34841 | 34007 ft | 489 kts | 228° |
| 2026-05-05 10:17 | 16.15961 | -114.40208 | 34009 ft | 489 kts | 228° |
| 2026-05-05 10:18 | 16.11520 | -114.45568 | 34009 ft | 488 kts | 228° |
| 2026-05-05 10:18 | 16.07105 | -114.50892 | 34009 ft | 487 kts | 228° |
| 2026-05-05 10:19 | 16.02695 | -114.56205 | 34003 ft | 487 kts | 228° |
| 2026-05-05 10:19 | 15.98262 | -114.61543 | 34001 ft | 488 kts | 228° |
| 2026-05-05 10:20 | 15.93812 | -114.66896 | 34010 ft | 490 kts | 228° |
| 2026-05-05 10:20 | 15.89357 | -114.72252 | 34013 ft | 490 kts | 228° |
| 2026-05-05 10:21 | 15.84898 | -114.77609 | 34011 ft | 489 kts | 228° |
| 2026-05-05 10:21 | 15.80476 | -114.82919 | 34005 ft | 489 kts | 228° |
| 2026-05-05 10:22 | 15.76017 | -114.88266 | 34008 ft | 490 kts | 228° |
| 2026-05-05 10:22 | 15.71545 | -114.93628 | 34004 ft | 490 kts | 228° |
| 2026-05-05 10:23 | 15.67081 | -114.98974 | 34007 ft | 490 kts | 228° |
| 2026-05-05 10:23 | 15.62638 | -115.04294 | 34003 ft | 490 kts | 228° |
| 2026-05-05 10:24 | 15.58149 | -115.09662 | 34002 ft | 489 kts | 228° |
| 2026-05-05 10:24 | 15.53677 | -115.15008 | 34008 ft | 491 kts | 228° |
| 2026-05-05 10:25 | 15.49224 | -115.20327 | 33999 ft | 490 kts | 228° |
| 2026-05-05 10:25 | 15.44742 | -115.25675 | 34009 ft | 491 kts | 228° |
| 2026-05-05 10:26 | 15.40265 | -115.31016 | 34004 ft | 491 kts | 227° |
| 2026-05-05 10:26 | 15.35777 | -115.36365 | 34004 ft | 491 kts | 227° |
| 2026-05-05 10:27 | 15.31288 | -115.41710 | 34007 ft | 492 kts | 227° |
| 2026-05-05 10:27 | 15.26788 | -115.47066 | 34000 ft | 497 kts | 228° |
| 2026-05-05 10:28 | 15.22269 | -115.52441 | 33996 ft | 493 kts | 227° |
| 2026-05-05 10:28 | 15.17753 | -115.57806 | 33992 ft | 493 kts | 228° |
| 2026-05-05 10:29 | 15.13249 | -115.63158 | 33991 ft | 493 kts | 227° |
| 2026-05-05 10:29 | 15.08753 | -115.68492 | 33994 ft | 494 kts | 227° |
| 2026-05-05 10:30 | 15.04230 | -115.73856 | 33989 ft | 494 kts | 227° |
| 2026-05-05 10:30 | 14.99696 | -115.79229 | 33993 ft | 495 kts | 227° |
| 2026-05-05 10:31 | 14.95168 | -115.84593 | 33992 ft | 494 kts | 227° |
| 2026-05-05 10:31 | 14.90681 | -115.89901 | 33988 ft | 493 kts | 227° |
| 2026-05-05 10:32 | 14.86162 | -115.95245 | 33990 ft | 492 kts | 227° |
| 2026-05-05 10:32 | 14.81658 | -116.00570 | 33985 ft | 493 kts | 227° |
| 2026-05-05 10:33 | 14.77141 | -116.05904 | 33986 ft | 493 kts | 227° |
| 2026-05-05 10:33 | 14.72626 | -116.11230 | 33982 ft | 493 kts | 228° |
| 2026-05-05 10:34 | 14.68131 | -116.16534 | 33986 ft | 494 kts | 227° |
| 2026-05-05 10:34 | 14.63592 | -116.21882 | 33992 ft | 495 kts | 228° |
| 2026-05-05 10:35 | 14.59039 | -116.27245 | 33989 ft | 495 kts | 227° |
| 2026-05-05 10:35 | 14.54498 | -116.32588 | 33992 ft | 494 kts | 228° |
| 2026-05-05 10:36 | 14.49993 | -116.37889 | 33986 ft | 494 kts | 227° |
| 2026-05-05 10:36 | 14.45451 | -116.43226 | 33986 ft | 495 kts | 227° |
| 2026-05-05 10:37 | 14.41667 | -116.47671 | 33984 ft | 495 kts | 228° |
| 2026-05-05 10:37 | 14.37110 | -116.53021 | 33985 ft | 495 kts | 228° |
| 2026-05-05 10:38 | 14.32564 | -116.58354 | 33985 ft | 494 kts | 228° |
| 2026-05-05 10:38 | 14.28055 | -116.63641 | 33983 ft | 494 kts | 227° |
| 2026-05-05 10:39 | 14.23502 | -116.68974 | 33983 ft | 495 kts | 228° |
| 2026-05-05 10:39 | 14.18943 | -116.74313 | 33987 ft | 496 kts | 227° |
| 2026-05-05 10:40 | 14.14403 | -116.79623 | 33984 ft | 496 kts | 228° |
| 2026-05-05 10:40 | 14.09836 | -116.84965 | 33981 ft | 495 kts | 227° |
| 2026-05-05 10:41 | 14.05278 | -116.90289 | 33975 ft | 495 kts | 228° |
| 2026-05-05 10:41 | 14.00723 | -116.95608 | 33977 ft | 494 kts | 228° |
| 2026-05-05 10:42 | 13.93918 | -117.03549 | 33971 ft | 494 kts | 228° |
| 2026-05-05 10:43 | 13.89367 | -117.08854 | 33972 ft | 494 kts | 227° |
| 2026-05-05 10:43 | 13.84816 | -117.14156 | 33967 ft | 494 kts | 228° |
| 2026-05-05 10:44 | 13.80263 | -117.19459 | 33967 ft | 494 kts | 227° |
| 2026-05-05 10:44 | 13.75732 | -117.24730 | 33965 ft | 494 kts | 227° |
| 2026-05-05 10:45 | 13.71175 | -117.30030 | 33965 ft | 494 kts | 227° |
| 2026-05-05 10:45 | 13.66755 | -117.35394 | 33960 ft | 494 kts | 231° |
| 2026-05-05 10:46 | 13.62434 | -117.40920 | 33959 ft | 496 kts | 230° |
| 2026-05-05 10:46 | 13.58135 | -117.46471 | 33967 ft | 496 kts | 231° |
| 2026-05-05 10:47 | 13.53844 | -117.51987 | 33965 ft | 496 kts | 230° |
| 2026-05-05 10:47 | 13.49533 | -117.57531 | 33961 ft | 495 kts | 231° |
| 2026-05-05 10:48 | 13.45228 | -117.63063 | 33965 ft | 495 kts | 230° |
| 2026-05-05 10:48 | 13.40923 | -117.68590 | 33958 ft | 496 kts | 230° |
| 2026-05-05 10:49 | 13.36610 | -117.74126 | 33960 ft | 496 kts | 230° |
| 2026-05-05 10:49 | 13.32314 | -117.79634 | 33962 ft | 497 kts | 230° |
| 2026-05-05 10:50 | 13.27986 | -117.85182 | 33961 ft | 497 kts | 230° |
| 2026-05-05 10:50 | 13.23665 | -117.90716 | 33957 ft | 493 kts | 230° |
| 2026-05-05 10:51 | 13.19381 | -117.96201 | 33944 ft | 490 kts | 230° |
| 2026-05-05 10:51 | 13.15132 | -118.01635 | 33942 ft | 492 kts | 230° |
| 2026-05-05 10:52 | 13.10840 | -118.07124 | 33943 ft | 493 kts | 230° |
| 2026-05-05 10:52 | 13.06533 | -118.12624 | 33946 ft | 494 kts | 230° |
| 2026-05-05 10:53 | 13.02251 | -118.18093 | 33948 ft | 493 kts | 230° |
| 2026-05-05 10:53 | 12.97953 | -118.23578 | 33942 ft | 492 kts | 230° |
| 2026-05-05 10:54 | 12.93665 | -118.29047 | 33941 ft | 492 kts | 230° |
| 2026-05-05 10:54 | 12.89396 | -118.34486 | 33938 ft | 491 kts | 230° |
| 2026-05-05 10:55 | 12.85100 | -118.39960 | 33940 ft | 492 kts | 230° |
| 2026-05-05 10:55 | 12.80795 | -118.45439 | 33939 ft | 493 kts | 230° |
| 2026-05-05 10:56 | 12.76510 | -118.50892 | 33940 ft | 494 kts | 230° |
| 2026-05-05 10:56 | 12.72192 | -118.56380 | 33945 ft | 495 kts | 230° |
| 2026-05-05 10:57 | 12.67874 | -118.61869 | 33939 ft | 493 kts | 230° |
| 2026-05-05 10:57 | 12.63588 | -118.67308 | 33937 ft | 493 kts | 230° |
| 2026-05-05 10:58 | 12.59281 | -118.72779 | 33936 ft | 493 kts | 230° |
| 2026-05-05 10:58 | 12.54961 | -118.78255 | 33940 ft | 495 kts | 230° |
| 2026-05-05 10:59 | 12.50651 | -118.83720 | 33939 ft | 496 kts | 230° |
| 2026-05-05 10:59 | 12.46311 | -118.89217 | 33929 ft | 496 kts | 230° |
| 2026-05-05 11:00 | 12.41975 | -118.94710 | 33933 ft | 496 kts | 230° |
| 2026-05-05 11:00 | 12.37627 | -119.00212 | 33934 ft | 497 kts | 230° |
| 2026-05-05 11:01 | 12.33283 | -119.05704 | 33934 ft | 496 kts | 230° |
| 2026-05-05 11:01 | 12.28939 | -119.11195 | 33926 ft | 497 kts | 230° |
| 2026-05-05 11:02 | 12.24613 | -119.16658 | 33926 ft | 496 kts | 230° |
| 2026-05-05 11:02 | 12.20279 | -119.22133 | 33928 ft | 494 kts | 230° |
| 2026-05-05 11:03 | 12.15937 | -119.27608 | 33921 ft | 495 kts | 230° |
| 2026-05-05 11:03 | 12.11600 | -119.33081 | 33918 ft | 495 kts | 230° |
| 2026-05-05 11:04 | 12.07284 | -119.38517 | 33916 ft | 495 kts | 230° |
| 2026-05-05 11:04 | 12.02939 | -119.43990 | 33919 ft | 495 kts | 230° |
| 2026-05-05 11:05 | 11.98598 | -119.49457 | 33916 ft | 496 kts | 230° |
| 2026-05-05 11:05 | 11.94241 | -119.54938 | 33923 ft | 496 kts | 230° |
| 2026-05-05 11:06 | 11.89928 | -119.60362 | 33920 ft | 493 kts | 230° |
| 2026-05-05 11:06 | 11.85593 | -119.65811 | 33918 ft | 494 kts | 230° |
| 2026-05-05 11:07 | 11.81255 | -119.71258 | 33916 ft | 494 kts | 230° |
| 2026-05-05 11:07 | 11.76909 | -119.76712 | 33917 ft | 494 kts | 230° |
| 2026-05-05 11:08 | 11.72592 | -119.82133 | 33920 ft | 495 kts | 230° |
| 2026-05-05 11:08 | 11.68237 | -119.87591 | 33920 ft | 495 kts | 230° |
| 2026-05-05 11:09 | 11.63887 | -119.93042 | 33917 ft | 495 kts | 230° |
| 2026-05-05 11:09 | 11.59564 | -119.98459 | 33917 ft | 495 kts | 230° |
| 2026-05-05 11:10 | 11.55211 | -120.03905 | 33918 ft | 495 kts | 230° |
| 2026-05-05 11:10 | 11.50841 | -120.09370 | 33922 ft | 496 kts | 230° |
| 2026-05-05 11:11 | 11.46499 | -120.14797 | 33917 ft | 495 kts | 230° |
| 2026-05-05 11:11 | 11.42132 | -120.20252 | 33919 ft | 496 kts | 230° |
| 2026-05-05 11:12 | 11.37766 | -120.25705 | 33921 ft | 496 kts | 230° |
| 2026-05-05 11:12 | 11.33395 | -120.31159 | 33920 ft | 496 kts | 230° |
| 2026-05-05 11:13 | 11.29051 | -120.36577 | 33921 ft | 497 kts | 230° |
| 2026-05-05 11:13 | 11.24678 | -120.42028 | 33926 ft | 497 kts | 230° |
| 2026-05-05 11:14 | 11.20299 | -120.47485 | 33922 ft | 496 kts | 229° |
| 2026-05-05 11:14 | 11.15914 | -120.52944 | 33922 ft | 497 kts | 229° |
| 2026-05-05 11:15 | 11.11539 | -120.58390 | 33919 ft | 497 kts | 229° |
| 2026-05-05 11:15 | 11.07153 | -120.63844 | 33920 ft | 498 kts | 229° |
| 2026-05-05 11:16 | 11.02795 | -120.69264 | 33918 ft | 497 kts | 229° |
| 2026-05-05 11:16 | 10.98408 | -120.74715 | 33918 ft | 497 kts | 229° |
| 2026-05-05 11:17 | 10.94016 | -120.80168 | 33918 ft | 497 kts | 229° |
| 2026-05-05 11:17 | 10.89628 | -120.85617 | 33917 ft | 496 kts | 230° |
| 2026-05-05 11:18 | 10.85278 | -120.91013 | 33923 ft | 495 kts | 230° |
| 2026-05-05 11:18 | 10.80914 | -120.96426 | 33916 ft | 494 kts | 230° |
| 2026-05-05 11:19 | 10.76546 | -121.01841 | 33916 ft | 494 kts | 230° |
| 2026-05-05 11:19 | 10.72180 | -121.07248 | 33919 ft | 495 kts | 230° |
| 2026-05-05 11:20 | 10.67809 | -121.12660 | 33913 ft | 494 kts | 230° |
| 2026-05-05 11:20 | 10.63482 | -121.18015 | 33914 ft | 493 kts | 230° |
| 2026-05-05 11:21 | 10.59135 | -121.23392 | 33913 ft | 492 kts | 230° |
| 2026-05-05 11:21 | 10.54780 | -121.28777 | 33911 ft | 492 kts | 230° |
| 2026-05-05 11:22 | 10.50424 | -121.34159 | 33909 ft | 493 kts | 230° |
| 2026-05-05 11:22 | 10.46089 | -121.39515 | 33911 ft | 494 kts | 230° |
| 2026-05-05 11:23 | 10.41722 | -121.44906 | 33919 ft | 493 kts | 230° |
| 2026-05-05 11:23 | 10.37365 | -121.50283 | 33922 ft | 493 kts | 230° |
| 2026-05-05 11:24 | 10.33024 | -121.55636 | 33925 ft | 493 kts | 230° |
| 2026-05-05 11:24 | 10.28651 | -121.61027 | 33925 ft | 493 kts | 230° |
| 2026-05-05 11:25 | 10.25020 | -121.65501 | 33918 ft | 493 kts | 230° |
| 2026-05-05 11:25 | 10.19945 | -121.71752 | 33921 ft | 492 kts | 230° |
| 2026-05-05 11:26 | 10.16292 | -121.76249 | 33903 ft | 492 kts | 230° |
| 2026-05-05 11:26 | 10.11974 | -121.81563 | 33897 ft | 491 kts | 230° |
| 2026-05-05 11:27 | 10.07622 | -121.86915 | 33912 ft | 492 kts | 230° |
| 2026-05-05 11:27 | 10.03253 | -121.92287 | 33919 ft | 494 kts | 230° |
| 2026-05-05 11:28 | 9.98866 | -121.97678 | 33912 ft | 495 kts | 230° |
| 2026-05-05 11:28 | 9.94635 | -122.03176 | 33919 ft | 494 kts | 231° |
| 2026-05-05 11:29 | 9.90393 | -122.08615 | 33918 ft | 494 kts | 232° |
| 2026-05-05 11:29 | 9.86176 | -122.14133 | 33916 ft | 493 kts | 231° |
| 2026-05-05 11:30 | 9.81942 | -122.19595 | 33913 ft | 492 kts | 232° |
| 2026-05-05 11:30 | 9.77756 | -122.25039 | 33910 ft | 493 kts | 232° |
| 2026-05-05 11:31 | 9.73519 | -122.30520 | 33910 ft | 494 kts | 232° |
| 2026-05-05 11:31 | 9.69267 | -122.36033 | 33911 ft | 496 kts | 232° |
| 2026-05-05 11:32 | 9.65012 | -122.41539 | 33912 ft | 495 kts | 232° |
| 2026-05-05 11:32 | 9.60795 | -122.46998 | 33914 ft | 494 kts | 232° |
| 2026-05-05 11:33 | 9.56545 | -122.52495 | 33904 ft | 495 kts | 232° |
| 2026-05-05 11:33 | 9.52286 | -122.58001 | 33909 ft | 496 kts | 232° |
| 2026-05-05 11:34 | 9.48029 | -122.63502 | 33910 ft | 497 kts | 232° |
| 2026-05-05 11:34 | 9.43759 | -122.69018 | 33909 ft | 498 kts | 232° |
| 2026-05-05 11:35 | 9.39506 | -122.74509 | 33907 ft | 498 kts | 232° |
| 2026-05-05 11:35 | 9.35224 | -122.80035 | 33910 ft | 498 kts | 232° |
| 2026-05-05 11:36 | 9.30929 | -122.85576 | 33904 ft | 499 kts | 232° |
| 2026-05-05 11:36 | 9.26663 | -122.91076 | 33902 ft | 499 kts | 232° |
| 2026-05-05 11:37 | 9.22383 | -122.96593 | 33887 ft | 497 kts | 231° |
| 2026-05-05 11:37 | 9.18112 | -123.02095 | 33907 ft | 498 kts | 231° |
| 2026-05-05 11:38 | 9.13817 | -123.07626 | 33910 ft | 499 kts | 231° |
| 2026-05-05 11:38 | 9.09520 | -123.13157 | 33910 ft | 499 kts | 231° |
| 2026-05-05 11:39 | 9.05255 | -123.18644 | 33910 ft | 499 kts | 231° |
| 2026-05-05 11:39 | 9.00967 | -123.24159 | 33906 ft | 498 kts | 231° |
| 2026-05-05 11:40 | 8.96686 | -123.29663 | 33903 ft | 498 kts | 231° |
| 2026-05-05 11:40 | 8.92392 | -123.35180 | 33904 ft | 498 kts | 231° |
| 2026-05-05 11:41 | 8.88098 | -123.40696 | 33904 ft | 498 kts | 231° |
| 2026-05-05 11:41 | 8.83834 | -123.46169 | 33904 ft | 498 kts | 231° |
| 2026-05-05 11:42 | 8.79554 | -123.51663 | 33905 ft | 497 kts | 231° |
| 2026-05-05 11:42 | 8.75267 | -123.57162 | 33900 ft | 498 kts | 231° |
| 2026-05-05 11:43 | 8.70964 | -123.62679 | 33905 ft | 498 kts | 231° |
| 2026-05-05 11:43 | 8.66672 | -123.68181 | 33898 ft | 498 kts | 231° |
| 2026-05-05 11:44 | 8.62405 | -123.73647 | 33902 ft | 499 kts | 231° |
| 2026-05-05 11:44 | 8.58102 | -123.79159 | 33903 ft | 499 kts | 231° |
| 2026-05-05 11:45 | 8.53797 | -123.84670 | 33900 ft | 499 kts | 231° |
| 2026-05-05 11:45 | 8.49491 | -123.90179 | 33904 ft | 499 kts | 231° |
| 2026-05-05 11:46 | 8.45218 | -123.95646 | 33905 ft | 499 kts | 231° |
| 2026-05-05 11:46 | 8.40909 | -124.01155 | 33888 ft | 499 kts | 231° |
| 2026-05-05 11:47 | 8.36604 | -124.06657 | 33900 ft | 499 kts | 231° |
| 2026-05-05 11:47 | 8.32290 | -124.12169 | 33898 ft | 500 kts | 231° |
| 2026-05-05 11:48 | 8.25847 | -124.20396 | 33903 ft | 498 kts | 231° |
| 2026-05-05 11:48 | 8.21546 | -124.25885 | 33888 ft | 497 kts | 231° |
| 2026-05-05 11:49 | 8.17254 | -124.31362 | 33884 ft | 497 kts | 231° |
| 2026-05-05 11:49 | 8.12965 | -124.36832 | 33880 ft | 497 kts | 231° |
| 2026-05-05 11:50 | 8.08668 | -124.42310 | 33884 ft | 497 kts | 231° |
| 2026-05-05 11:50 | 8.04385 | -124.47768 | 33884 ft | 498 kts | 231° |
| 2026-05-05 11:51 | 8.00082 | -124.53250 | 33891 ft | 498 kts | 231° |
| 2026-05-05 11:51 | 7.95778 | -124.58731 | 33886 ft | 497 kts | 231° |
| 2026-05-05 11:52 | 7.91475 | -124.64208 | 33890 ft | 497 kts | 231° |
| 2026-05-05 11:52 | 7.87177 | -124.69676 | 33890 ft | 497 kts | 231° |
| 2026-05-05 11:53 | 7.82903 | -124.75113 | 33884 ft | 497 kts | 231° |
| 2026-05-05 11:53 | 7.78594 | -124.80592 | 33886 ft | 497 kts | 231° |
| 2026-05-05 11:54 | 7.74315 | -124.86031 | 33885 ft | 497 kts | 231° |
| 2026-05-05 11:54 | 7.69991 | -124.91525 | 33893 ft | 499 kts | 231° |
| 2026-05-05 11:55 | 7.65709 | -124.96964 | 33891 ft | 497 kts | 231° |
| 2026-05-05 11:55 | 7.61395 | -125.02441 | 33894 ft | 498 kts | 231° |
| 2026-05-05 11:56 | 7.57077 | -125.07922 | 33897 ft | 499 kts | 231° |
| 2026-05-05 11:56 | 7.52760 | -125.13398 | 33897 ft | 498 kts | 231° |
| 2026-05-05 11:57 | 7.48438 | -125.18879 | 33902 ft | 499 kts | 231° |
| 2026-05-05 11:57 | 7.44116 | -125.24359 | 33885 ft | 499 kts | 231° |
| 2026-05-05 11:58 | 7.39818 | -125.29806 | 33892 ft | 500 kts | 231° |
| 2026-05-05 11:58 | 7.35488 | -125.35292 | 33887 ft | 500 kts | 231° |
| 2026-05-05 11:59 | 7.31153 | -125.40783 | 33888 ft | 500 kts | 231° |
| 2026-05-05 11:59 | 7.26841 | -125.46242 | 33887 ft | 500 kts | 231° |
| 2026-05-05 12:00 | 7.22497 | -125.51740 | 33892 ft | 501 kts | 231° |
| 2026-05-05 12:00 | 7.18154 | -125.57235 | 33892 ft | 501 kts | 231° |
| 2026-05-05 12:01 | 7.13817 | -125.62720 | 33889 ft | 500 kts | 231° |
| 2026-05-05 12:01 | 7.09507 | -125.68232 | 33893 ft | 500 kts | 232° |
| 2026-05-05 12:02 | 7.05249 | -125.73712 | 33887 ft | 501 kts | 231° |
| 2026-05-05 12:02 | 7.00933 | -125.79235 | 33890 ft | 502 kts | 232° |
| 2026-05-05 12:03 | 6.96636 | -125.84754 | 33889 ft | 500 kts | 232° |
| 2026-05-05 12:03 | 6.92333 | -125.90263 | 33890 ft | 501 kts | 232° |
| 2026-05-05 12:04 | 6.88022 | -125.95789 | 33887 ft | 501 kts | 232° |
| 2026-05-05 12:04 | 6.83750 | -126.01260 | 33885 ft | 501 kts | 232° |
| 2026-05-05 12:05 | 6.79440 | -126.06780 | 33893 ft | 502 kts | 232° |
| 2026-05-05 12:05 | 6.75114 | -126.12316 | 33889 ft | 502 kts | 232° |
| 2026-05-05 12:06 | 6.70800 | -126.17837 | 33891 ft | 501 kts | 232° |
| 2026-05-05 12:06 | 6.66487 | -126.23354 | 33888 ft | 501 kts | 232° |
| 2026-05-05 12:07 | 6.62202 | -126.28834 | 33891 ft | 502 kts | 232° |
| 2026-05-05 12:07 | 6.57864 | -126.34379 | 33889 ft | 503 kts | 232° |
| 2026-05-05 12:08 | 6.53531 | -126.39917 | 33885 ft | 504 kts | 232° |
| 2026-05-05 12:08 | 6.49188 | -126.45466 | 33882 ft | 503 kts | 232° |
| 2026-05-05 12:09 | 6.44860 | -126.50994 | 33875 ft | 503 kts | 232° |
| 2026-05-05 12:09 | 6.40549 | -126.56497 | 33881 ft | 504 kts | 232° |
| 2026-05-05 12:10 | 6.36204 | -126.62043 | 33882 ft | 503 kts | 232° |
| 2026-05-05 12:10 | 6.31872 | -126.67571 | 33882 ft | 502 kts | 231° |
| 2026-05-05 12:11 | 6.27582 | -126.73044 | 33880 ft | 501 kts | 231° |
| 2026-05-05 12:11 | 6.23263 | -126.78552 | 33883 ft | 501 kts | 231° |
| 2026-05-05 12:12 | 6.18950 | -126.84050 | 33880 ft | 501 kts | 231° |
| 2026-05-05 12:12 | 6.15362 | -126.88623 | 33881 ft | 500 kts | 231° |
| 2026-05-05 12:13 | 6.11055 | -126.94111 | 33881 ft | 500 kts | 231° |
| 2026-05-05 12:13 | 6.06665 | -126.99552 | 33882 ft | 501 kts | 231° |
| 2026-05-05 12:14 | 6.02312 | -127.04972 | 33883 ft | 501 kts | 231° |
| 2026-05-05 12:14 | 5.97929 | -127.10427 | 33892 ft | 501 kts | 231° |
| 2026-05-05 12:15 | 5.93542 | -127.15878 | 33882 ft | 500 kts | 231° |
| 2026-05-05 12:15 | 5.89196 | -127.21285 | 33881 ft | 501 kts | 231° |
| 2026-05-05 12:16 | 5.84799 | -127.26747 | 33883 ft | 502 kts | 231° |
| 2026-05-05 12:16 | 5.80408 | -127.32204 | 33882 ft | 502 kts | 231° |
| 2026-05-05 12:17 | 5.76013 | -127.37662 | 33880 ft | 501 kts | 231° |
| 2026-05-05 12:17 | 5.71632 | -127.43103 | 33878 ft | 501 kts | 231° |
| 2026-05-05 12:18 | 5.67265 | -127.48525 | 33879 ft | 503 kts | 231° |
| 2026-05-05 12:18 | 5.62862 | -127.53990 | 33883 ft | 503 kts | 231° |
| 2026-05-05 12:19 | 5.58453 | -127.59460 | 33880 ft | 503 kts | 231° |
| 2026-05-05 12:19 | 5.54054 | -127.64917 | 33878 ft | 502 kts | 231° |
| 2026-05-05 12:20 | 5.49694 | -127.70324 | 33876 ft | 501 kts | 231° |
| 2026-05-05 12:20 | 5.45299 | -127.75773 | 33878 ft | 501 kts | 231° |
| 2026-05-05 12:21 | 5.40912 | -127.81211 | 33877 ft | 500 kts | 231° |
| 2026-05-05 12:21 | 5.36525 | -127.86647 | 33876 ft | 501 kts | 231° |
| 2026-05-05 12:22 | 5.32163 | -127.92051 | 33872 ft | 500 kts | 231° |
| 2026-05-05 12:22 | 5.27781 | -127.97479 | 33874 ft | 500 kts | 231° |
| 2026-05-05 12:23 | 5.23389 | -128.02917 | 33879 ft | 501 kts | 231° |
| 2026-05-05 12:23 | 5.19039 | -128.08303 | 33880 ft | 500 kts | 231° |
| 2026-05-05 12:24 | 5.14657 | -128.13726 | 33880 ft | 500 kts | 231° |
| 2026-05-05 12:24 | 5.10274 | -128.19149 | 33876 ft | 501 kts | 231° |
| 2026-05-05 12:25 | 5.05881 | -128.24584 | 33877 ft | 502 kts | 231° |
| 2026-05-05 12:25 | 5.01489 | -128.30016 | 33875 ft | 499 kts | 231° |
| 2026-05-05 12:26 | 4.97112 | -128.35428 | 33872 ft | 500 kts | 231° |
| 2026-05-05 12:26 | 4.92750 | -128.40820 | 33877 ft | 501 kts | 231° |
| 2026-05-05 12:27 | 4.88354 | -128.46252 | 33873 ft | 501 kts | 231° |
| 2026-05-05 12:27 | 4.83957 | -128.51685 | 33874 ft | 500 kts | 231° |
| 2026-05-05 12:28 | 4.79567 | -128.57108 | 33867 ft | 501 kts | 231° |
| 2026-05-05 12:28 | 4.75196 | -128.62508 | 33866 ft | 502 kts | 231° |
| 2026-05-05 12:29 | 4.70781 | -128.67959 | 33870 ft | 503 kts | 231° |
| 2026-05-05 12:29 | 4.66361 | -128.73415 | 33872 ft | 504 kts | 231° |
| 2026-05-05 12:30 | 4.61960 | -128.78847 | 33872 ft | 504 kts | 231° |
| 2026-05-05 12:30 | 4.57533 | -128.84310 | 33872 ft | 504 kts | 231° |
| 2026-05-05 12:31 | 4.53104 | -128.89774 | 33873 ft | 505 kts | 231° |
| 2026-05-05 12:31 | 4.48678 | -128.95233 | 33870 ft | 503 kts | 231° |
| 2026-05-05 12:32 | 4.44257 | -129.00684 | 33871 ft | 505 kts | 231° |
| 2026-05-05 12:32 | 4.39824 | -129.06151 | 33874 ft | 505 kts | 231° |
| 2026-05-05 12:33 | 4.35396 | -129.11609 | 33875 ft | 504 kts | 231° |
| 2026-05-05 12:33 | 4.31000 | -129.17026 | 33868 ft | 505 kts | 231° |
| 2026-05-05 12:34 | 4.26561 | -129.22495 | 33871 ft | 506 kts | 231° |
| 2026-05-05 12:34 | 4.22106 | -129.27983 | 33869 ft | 507 kts | 231° |
| 2026-05-05 12:35 | 4.17663 | -129.33456 | 33867 ft | 506 kts | 231° |
| 2026-05-05 12:35 | 4.13250 | -129.38890 | 33866 ft | 505 kts | 231° |
| 2026-05-05 12:36 | 4.08808 | -129.44359 | 33864 ft | 505 kts | 232° |
| 2026-05-05 12:36 | 4.04368 | -129.49824 | 33864 ft | 506 kts | 232° |
| 2026-05-05 12:37 | 3.99930 | -129.55286 | 33866 ft | 505 kts | 232° |
| 2026-05-05 12:37 | 3.95512 | -129.60722 | 33863 ft | 504 kts | 232° |
| 2026-05-05 12:38 | 3.91064 | -129.66194 | 33863 ft | 505 kts | 232° |
| 2026-05-05 12:38 | 3.86624 | -129.71655 | 33868 ft | 505 kts | 232° |
| 2026-05-05 12:39 | 3.82213 | -129.77079 | 33863 ft | 504 kts | 232° |
| 2026-05-05 12:39 | 3.77774 | -129.82537 | 33862 ft | 504 kts | 232° |
| 2026-05-05 12:40 | 3.73353 | -129.87972 | 33862 ft | 503 kts | 232° |
| 2026-05-05 12:40 | 3.68958 | -129.93374 | 33858 ft | 503 kts | 232° |
| 2026-05-05 12:41 | 3.64533 | -129.98812 | 33882 ft | 505 kts | 232° |
| 2026-05-05 12:41 | 3.62307 | -130.01548 | 34093 ft | 505 kts | 232° |
| 2026-05-05 12:41 | 3.60089 | -130.04272 | 34361 ft | 504 kts | 232° |
| 2026-05-05 12:42 | 3.57874 | -130.06993 | 34612 ft | 504 kts | 232° |
| 2026-05-05 12:42 | 3.55662 | -130.09711 | 34861 ft | 503 kts | 232° |
| 2026-05-05 12:42 | 3.53451 | -130.12427 | 35115 ft | 502 kts | 232° |
| 2026-05-05 12:42 | 3.51274 | -130.15100 | 35366 ft | 501 kts | 232° |
| 2026-05-05 12:43 | 3.49072 | -130.17805 | 35605 ft | 500 kts | 232° |
| 2026-05-05 12:43 | 3.46867 | -130.20502 | 35837 ft | 500 kts | 232° |
| 2026-05-05 12:43 | 3.42423 | -130.25932 | 35855 ft | 503 kts | 232° |
| 2026-05-05 12:44 | 3.38015 | -130.31326 | 35853 ft | 499 kts | 232° |
| 2026-05-05 12:44 | 3.33653 | -130.36659 | 35852 ft | 498 kts | 233° |
| 2026-05-05 12:45 | 3.29258 | -130.42034 | 35853 ft | 498 kts | 233° |
| 2026-05-05 12:45 | 3.24852 | -130.47420 | 35853 ft | 499 kts | 233° |
| 2026-05-05 12:46 | 3.20478 | -130.52766 | 35853 ft | 499 kts | 233° |
| 2026-05-05 12:46 | 3.16068 | -130.58156 | 35854 ft | 500 kts | 233° |
| 2026-05-05 12:47 | 3.11658 | -130.63544 | 35858 ft | 501 kts | 233° |
| 2026-05-05 12:47 | 3.07237 | -130.68946 | 35859 ft | 501 kts | 233° |
| 2026-05-05 12:48 | 3.02838 | -130.74319 | 35858 ft | 502 kts | 233° |
| 2026-05-05 12:48 | 2.98406 | -130.79733 | 35863 ft | 502 kts | 233° |
| 2026-05-05 12:49 | 2.93978 | -130.85141 | 35862 ft | 502 kts | 233° |
| 2026-05-05 12:49 | 2.89542 | -130.90527 | 35864 ft | 500 kts | 229° |
| 2026-05-05 12:50 | 2.85004 | -130.95762 | 35862 ft | 500 kts | 232° |
| 2026-05-05 12:50 | 2.80442 | -131.01048 | 35862 ft | 502 kts | 231° |
| 2026-05-05 12:51 | 2.75856 | -131.06326 | 35868 ft | 502 kts | 231° |
| 2026-05-05 12:51 | 2.71307 | -131.11593 | 35864 ft | 503 kts | 231° |
| 2026-05-05 12:52 | 2.66723 | -131.16875 | 35865 ft | 502 kts | 231° |
| 2026-05-05 12:52 | 2.62144 | -131.22168 | 35863 ft | 501 kts | 231° |
| 2026-05-05 12:53 | 2.57575 | -131.27438 | 35860 ft | 501 kts | 231° |
| 2026-05-05 12:53 | 2.53047 | -131.32666 | 35858 ft | 500 kts | 231° |
| 2026-05-05 12:54 | 2.46200 | -131.40566 | 35855 ft | 499 kts | 231° |
| 2026-05-05 12:55 | 2.41640 | -131.45827 | 35854 ft | 500 kts | 231° |
| 2026-05-05 12:55 | 2.37102 | -131.51062 | 35860 ft | 501 kts | 231° |
| 2026-05-05 12:56 | 2.32524 | -131.56343 | 35867 ft | 502 kts | 231° |
| 2026-05-05 12:56 | 2.27941 | -131.61628 | 35865 ft | 501 kts | 231° |
| 2026-05-05 12:57 | 2.23385 | -131.66883 | 35859 ft | 498 kts | 231° |
| 2026-05-05 12:57 | 2.18876 | -131.72083 | 35854 ft | 498 kts | 231° |
| 2026-05-05 12:58 | 2.14327 | -131.77327 | 35855 ft | 498 kts | 231° |
| 2026-05-05 12:58 | 2.09779 | -131.82572 | 35855 ft | 499 kts | 231° |
| 2026-05-05 12:59 | 2.05223 | -131.87823 | 35862 ft | 500 kts | 231° |
| 2026-05-05 12:59 | 2.00695 | -131.93043 | 35868 ft | 500 kts | 231° |
| 2026-05-05 13:00 | 1.93841 | -132.00942 | 35868 ft | 501 kts | 231° |
| 2026-05-05 13:01 | 1.84754 | -132.11415 | 35861 ft | 498 kts | 231° |
| 2026-05-05 13:01 | 1.80980 | -132.15762 | 35854 ft | 497 kts | 231° |
| 2026-05-05 13:02 | 1.76442 | -132.20991 | 35857 ft | 498 kts | 231° |
| 2026-05-05 13:02 | 1.71890 | -132.26235 | 35857 ft | 499 kts | 231° |
| 2026-05-05 13:03 | 1.67331 | -132.31487 | 35865 ft | 500 kts | 231° |